createdAt,value
2018-11-23T00:01:15.397Z,11.10
2018-11-23T00:03:44.252Z,11.31
2018-11-23T00:09:01.913Z,11.35
2018-11-23T00:11:31.428Z,11.59
2018-11-23T00:13:58.886Z,11.30
2018-11-23T00:16:26.441Z,11.19
2018-11-23T00:18:53.830Z,11.13
2018-11-23T00:21:20.750Z,11.06
2018-11-23T00:23:50.056Z,11.45
2018-11-23T00:26:18.779Z,11.38
2018-11-23T00:28:56.952Z,11.36
2018-11-23T00:31:24.422Z,11.14
2018-11-23T00:33:53.084Z,11.25
2018-11-23T00:36:20.588Z,11.62
2018-11-23T00:38:46.998Z,11.37
2018-11-23T00:41:14.359Z,11.25
2018-11-23T00:43:41.498Z,11.20
2018-11-23T00:46:08.950Z,11.29
2018-11-23T00:48:47.847Z,11.38
2018-11-23T00:51:15.532Z,11.26
2018-11-23T00:53:46.174Z,11.63
2018-11-23T00:56:14.400Z,11.40
2018-11-23T00:58:41.821Z,11.19
2018-11-23T01:01:16.833Z,11.14
2018-11-23T01:03:46.065Z,11.01
2018-11-23T01:06:15.041Z,10.91
2018-11-23T01:08:58.897Z,11.02
2018-11-23T01:11:29.011Z,11.16
2018-11-23T01:13:56.457Z,11.09
2018-11-23T01:16:24.876Z,11.07
2018-11-23T01:18:53.707Z,11.17
2018-11-23T01:21:24.717Z,11.12
2018-11-23T01:23:52.233Z,11.07
2018-11-23T01:26:21.618Z,11.13
2018-11-23T01:34:18.987Z,11.25
2018-11-23T01:36:46.416Z,11.16
2018-11-23T01:39:15.226Z,11.19
2018-11-23T01:41:59.512Z,11.28
2018-11-23T01:44:30.351Z,10.99
2018-11-23T01:46:57.397Z,11.01
2018-11-23T01:49:24.112Z,10.91
2018-11-23T01:51:52.779Z,11.02
2018-11-23T01:54:19.491Z,11.00
2018-11-23T01:56:46.906Z,11.04
2018-11-23T01:59:14.403Z,10.95
2018-11-23T02:01:41.304Z,10.89
2018-11-23T02:04:12.210Z,11.04
2018-11-23T02:06:41.679Z,11.15
2018-11-23T02:09:08.813Z,11.16
2018-11-23T02:11:36.264Z,11.21
2018-11-23T02:14:07.123Z,11.31
2018-11-23T02:16:34.527Z,11.52
2018-11-23T02:19:04.990Z,11.46
2018-11-23T02:21:32.429Z,11.30
2018-11-23T02:23:59.369Z,11.15
2018-11-23T02:26:26.807Z,11.32
2018-11-23T02:28:54.279Z,11.30
2018-11-23T02:31:20.883Z,11.40
2018-11-23T02:33:47.342Z,11.14
2018-11-23T02:36:15.026Z,11.06
2018-11-23T02:38:42.504Z,11.12
2018-11-23T02:41:08.938Z,11.10
2018-11-23T02:43:36.388Z,11.27
2018-11-23T02:46:03.115Z,11.26
2018-11-23T02:48:30.555Z,11.21
2018-11-23T02:50:58.000Z,11.08
2018-11-23T02:53:24.811Z,11.27
2018-11-23T02:55:51.283Z,11.27
2018-11-23T02:58:18.736Z,11.19
2018-11-23T03:00:45.944Z,11.16
2018-11-23T03:03:12.376Z,11.10
2018-11-23T03:05:41.858Z,11.18
2018-11-23T03:08:09.001Z,11.27
2018-11-23T03:10:39.835Z,11.18
2018-11-23T03:13:07.284Z,11.51
2018-11-23T03:15:33.907Z,11.57
2018-11-23T03:18:00.346Z,11.59
2018-11-23T03:20:31.251Z,11.23
2018-11-23T03:22:58.334Z,11.05
2018-11-23T03:25:28.863Z,11.08
2018-11-23T03:27:59.762Z,11.08
2018-11-23T03:30:27.962Z,11.25
2018-11-23T03:32:55.381Z,11.15
2018-11-23T03:35:22.798Z,11.16
2018-11-23T03:37:52.885Z,11.22
2018-11-23T03:40:20.288Z,11.13
2018-11-23T03:42:51.387Z,11.37
2018-11-23T03:45:17.992Z,11.39
2018-11-23T03:47:45.871Z,11.41
2018-11-23T03:50:12.323Z,11.46
2018-11-23T03:52:39.316Z,11.32
2018-11-23T03:55:06.736Z,11.22
2018-11-23T03:57:37.796Z,11.18
2018-11-23T04:00:05.970Z,11.08
2018-11-23T04:02:36.698Z,11.05
2018-11-23T04:05:03.371Z,11.10
2018-11-23T04:07:30.195Z,11.31
2018-11-23T04:09:57.626Z,11.33
2018-11-23T04:15:13.315Z,11.14
2018-11-23T04:17:40.933Z,11.21
2018-11-23T04:20:08.366Z,11.46
2018-11-23T04:22:35.590Z,11.30
2018-11-23T04:25:03.074Z,11.48
2018-11-23T04:27:33.889Z,11.41
2018-11-23T04:30:03.734Z,11.17
2018-11-23T04:35:19.331Z,11.17
2018-11-23T04:37:46.786Z,11.05
2018-11-23T04:40:13.467Z,11.27
2018-11-23T04:42:39.896Z,11.50
2018-11-23T04:45:06.822Z,11.30
2018-11-23T04:47:33.539Z,11.17
2018-11-23T04:50:02.682Z,11.14
2018-11-23T04:52:29.147Z,11.29
2018-11-23T04:54:59.040Z,11.35
2018-11-23T04:57:26.721Z,11.22
2018-11-23T04:59:54.479Z,11.34
2018-11-23T05:02:25.275Z,11.65
2018-11-23T05:04:54.272Z,11.29
2018-11-23T05:07:22.001Z,11.27
2018-11-23T05:09:48.427Z,10.96
2018-11-23T05:12:19.723Z,11.01
2018-11-23T05:14:56.952Z,11.12
2018-11-23T05:17:26.624Z,10.97
2018-11-23T05:19:54.791Z,10.95
2018-11-23T05:22:22.486Z,11.02
2018-11-23T05:24:50.668Z,10.99
2018-11-23T05:27:17.814Z,10.87
2018-11-23T05:29:46.760Z,10.93
2018-11-23T05:32:17.812Z,11.08
2018-11-23T05:34:45.503Z,11.06
2018-11-23T05:37:14.795Z,11.23
2018-11-23T05:39:41.479Z,11.38
2018-11-23T05:42:11.117Z,11.32
2018-11-23T05:44:41.352Z,11.12
2018-11-23T05:47:11.743Z,11.15
2018-11-23T05:49:38.450Z,11.25
2018-11-23T05:52:05.360Z,11.30
2018-11-23T05:57:19.747Z,11.13
2018-11-23T05:59:47.129Z,11.10
2018-11-23T06:02:13.864Z,11.02
2018-11-23T06:04:40.297Z,10.94
2018-11-23T06:07:07.984Z,10.67
2018-11-23T06:09:34.662Z,10.71
2018-11-23T06:12:01.335Z,10.90
2018-11-23T06:14:31.675Z,11.12
2018-11-23T06:16:59.788Z,11.22
2018-11-23T06:19:27.487Z,11.03
2018-11-23T06:21:55.178Z,10.99
2018-11-23T06:24:27.572Z,11.04
2018-11-23T06:26:52.266Z,11.04
2018-11-23T06:29:20.396Z,11.07
2018-11-23T06:31:48.067Z,11.24
2018-11-23T06:34:14.711Z,11.30
2018-11-23T06:36:44.737Z,11.25
2018-11-23T06:39:17.321Z,11.27
2018-11-23T06:41:44.991Z,11.28
2018-11-23T06:44:14.240Z,11.05
2018-11-23T06:46:41.966Z,10.97
2018-11-23T06:49:09.929Z,10.88
2018-11-23T06:51:42.278Z,10.96
2018-11-23T06:54:26.749Z,10.83
2018-11-23T06:56:53.454Z,10.82
2018-11-23T07:02:18.133Z,11.12
2018-11-23T07:04:50.762Z,11.17
2018-11-23T07:07:18.743Z,11.44
2018-11-23T07:09:50.009Z,11.48
2018-11-23T07:12:32.465Z,11.44
2018-11-23T07:14:58.908Z,11.31
2018-11-23T07:17:26.626Z,11.25
2018-11-23T07:19:57.475Z,11.20
2018-11-23T07:22:28.206Z,11.28
2018-11-23T07:24:54.798Z,11.38
2018-11-23T07:27:31.512Z,11.29
2018-11-23T07:32:47.171Z,11.28
2018-11-23T07:35:14.426Z,11.24
2018-11-23T07:37:41.327Z,11.12
2018-11-23T07:40:10.506Z,10.76
2018-11-23T07:42:39.736Z,10.47
2018-11-23T07:45:06.394Z,10.59
2018-11-23T07:47:34.297Z,10.74
2018-11-23T07:50:02.474Z,10.95
2018-11-23T07:52:39.035Z,10.64
2018-11-23T07:55:07.548Z,11.12
2018-11-23T07:57:37.879Z,11.50
2018-11-23T08:00:07.810Z,11.24
2018-11-23T08:02:35.424Z,11.25
2018-11-23T08:05:02.593Z,11.31
2018-11-23T08:07:29.787Z,11.28
2018-11-23T08:09:57.622Z,11.48
2018-11-23T08:12:25.068Z,11.47
2018-11-23T08:14:51.503Z,11.53
2018-11-23T08:17:17.928Z,11.58
2018-11-23T08:19:47.483Z,11.59
2018-11-23T08:22:15.038Z,11.80
2018-11-23T08:27:31.273Z,11.65
2018-11-23T08:30:01.390Z,11.45
2018-11-23T08:32:28.516Z,11.28
2018-11-23T08:35:00.839Z,11.55
2018-11-23T08:37:28.566Z,11.84
2018-11-23T08:39:55.229Z,11.81
2018-11-23T08:42:23.358Z,11.73
2018-11-23T08:45:05.805Z,11.88
2018-11-23T08:47:33.495Z,11.60
2018-11-23T08:50:01.200Z,11.84
2018-11-23T08:52:39.535Z,11.63
2018-11-23T08:55:06.677Z,11.82
2018-11-23T08:57:34.357Z,11.62
2018-11-23T09:00:01.625Z,11.48
2018-11-23T09:02:29.767Z,11.42
2018-11-23T09:04:59.566Z,11.25
2018-11-23T09:07:29.270Z,11.23
2018-11-23T09:09:57.691Z,11.47
2018-11-23T09:12:25.578Z,11.64
2018-11-23T09:15:03.313Z,11.53
2018-11-23T09:20:16.234Z,11.60
2018-11-23T09:22:43.923Z,11.69
2018-11-23T09:25:11.684Z,11.87
2018-11-23T09:27:39.408Z,11.93
2018-11-23T09:32:52.466Z,12.04
2018-11-23T09:35:22.269Z,11.43
2018-11-23T09:37:50.421Z,11.40
2018-11-23T09:40:18.161Z,11.86
2018-11-23T09:45:32.901Z,11.77
2018-11-23T09:48:05.168Z,11.96
2018-11-23T09:53:19.967Z,11.48
2018-11-23T09:55:46.395Z,11.70
2018-11-23T09:58:15.100Z,12.07
2018-11-23T10:03:28.107Z,12.27
2018-11-23T10:05:55.803Z,12.21
2018-11-23T10:08:22.233Z,12.07
2018-11-23T10:10:48.680Z,11.78
2018-11-23T10:13:18.513Z,11.69
2018-11-23T10:18:34.854Z,11.32
2018-11-23T10:21:02.534Z,11.40
2018-11-23T10:23:34.904Z,11.67
2018-11-23T10:28:48.232Z,11.76
2018-11-23T10:31:14.685Z,11.89
2018-11-23T10:33:45.472Z,12.04
2018-11-23T10:36:14.413Z,11.84
2018-11-23T10:38:41.645Z,11.92
2018-11-23T10:41:09.744Z,11.98
2018-11-23T10:43:37.923Z,12.13
2018-11-23T10:46:05.157Z,11.92
2018-11-23T10:48:34.444Z,11.93
2018-11-23T10:51:04.326Z,11.67
2018-11-23T10:53:33.649Z,12.09
2018-11-23T10:56:00.338Z,11.75
2018-11-23T10:58:27.442Z,11.49
2018-11-23T11:00:53.913Z,11.84
2018-11-23T11:03:20.574Z,11.53
2018-11-23T11:05:47.273Z,11.40
2018-11-23T11:08:14.457Z,11.51
2018-11-23T11:10:43.488Z,12.00
2018-11-23T11:13:12.341Z,12.02
2018-11-23T11:15:39.464Z,11.86
2018-11-23T11:18:09.365Z,12.31
2018-11-23T11:20:38.899Z,12.08
2018-11-23T11:23:10.069Z,11.98
2018-11-23T11:25:37.337Z,11.41
2018-11-23T11:28:07.197Z,11.47
2018-11-23T11:30:46.120Z,11.60
2018-11-23T11:33:12.859Z,12.22
2018-11-23T11:35:41.631Z,12.03
2018-11-23T11:38:09.363Z,11.81
2018-11-23T11:40:39.141Z,11.69
2018-11-23T11:43:08.703Z,11.61
2018-11-23T11:45:37.897Z,11.64
2018-11-23T11:48:05.629Z,11.77
2018-11-23T11:50:35.176Z,11.70
2018-11-23T11:53:01.644Z,11.81
2018-11-23T11:55:31.646Z,11.71
2018-11-23T11:58:00.129Z,11.88
2018-11-23T12:00:30.030Z,11.81
2018-11-23T12:03:03.355Z,11.90
2018-11-23T12:05:33.424Z,11.42
2018-11-23T12:08:01.038Z,11.39
2018-11-23T12:10:27.561Z,11.12
2018-11-23T12:12:56.562Z,11.01
2018-11-23T12:18:14.797Z,11.15
2018-11-23T12:20:45.241Z,11.38
2018-11-23T12:23:12.926Z,11.54
2018-11-23T12:25:40.813Z,12.13
2018-11-23T12:28:09.709Z,12.13
2018-11-23T12:30:36.135Z,12.20
2018-11-23T12:33:03.576Z,12.09
2018-11-23T12:35:33.100Z,11.79
2018-11-23T12:37:59.854Z,11.76
2018-11-23T12:43:17.274Z,12.23
2018-11-23T12:45:46.445Z,11.61
2018-11-23T12:48:13.148Z,11.62
2018-11-23T12:50:46.863Z,11.64
2018-11-23T12:53:17.247Z,11.82
2018-11-23T12:55:47.499Z,11.96
2018-11-23T12:58:14.786Z,11.63
2018-11-23T13:00:42.167Z,11.49
2018-11-23T13:03:09.989Z,11.49
2018-11-23T13:08:25.672Z,11.35
2018-11-23T13:10:55.332Z,11.48
2018-11-23T13:13:24.711Z,11.22
2018-11-23T13:15:51.226Z,11.25
2018-11-23T13:18:19.349Z,11.15
2018-11-23T13:20:46.078Z,10.98
2018-11-23T13:23:13.532Z,10.58
2018-11-23T13:25:42.484Z,10.57
2018-11-23T13:28:12.330Z,10.69
2018-11-23T13:30:39.222Z,11.03
2018-11-23T13:33:16.215Z,10.99
2018-11-23T13:35:46.495Z,11.16
2018-11-23T13:38:13.919Z,11.25
2018-11-23T13:40:44.862Z,11.37
2018-11-23T13:43:11.330Z,11.60
2018-11-23T13:45:38.991Z,11.77
2018-11-23T13:50:54.535Z,12.06
2018-11-23T13:53:21.867Z,12.06
2018-11-23T13:58:36.933Z,11.65
2018-11-23T14:01:03.653Z,11.81
2018-11-23T14:03:34.596Z,11.70
2018-11-23T14:06:01.485Z,11.42
2018-11-23T14:11:17.126Z,11.53
2018-11-23T14:13:44.866Z,11.84
2018-11-23T14:16:12.055Z,11.91
2018-11-23T14:18:38.721Z,12.00
2018-11-23T14:21:06.633Z,11.82
2018-11-23T14:23:34.705Z,11.71
2018-11-23T14:26:10.284Z,11.50
2018-11-23T14:28:38.561Z,11.74
2018-11-23T14:31:05.293Z,11.86
2018-11-23T14:33:48.748Z,11.64
2018-11-23T14:36:15.589Z,11.62
2018-11-23T14:38:42.802Z,11.81
2018-11-23T14:41:11.922Z,11.64
2018-11-23T14:43:42.614Z,11.64
2018-11-23T14:46:10.050Z,12.07
2018-11-23T14:48:37.848Z,11.85
2018-11-23T14:51:08.849Z,11.63
2018-11-23T14:53:39.652Z,11.79
2018-11-23T14:56:06.786Z,11.78
2018-11-23T14:58:34.594Z,11.66
2018-11-23T15:01:01.839Z,12.02
2018-11-23T15:03:42.951Z,12.11
2018-11-23T15:06:10.444Z,12.23
2018-11-23T15:11:24.693Z,11.96
2018-11-23T15:13:55.532Z,11.69
2018-11-23T15:16:26.473Z,12.06
2018-11-23T15:21:40.580Z,11.61
2018-11-23T15:24:08.706Z,11.38
2018-11-23T15:26:38.098Z,11.39
2018-11-23T15:29:06.977Z,11.62
2018-11-23T15:31:35.743Z,11.41
2018-11-23T15:34:02.900Z,11.34
2018-11-23T15:36:38.054Z,11.40
2018-11-23T15:39:09.299Z,11.64
2018-11-23T15:41:38.998Z,11.97
2018-11-23T15:44:09.067Z,11.82
2018-11-23T15:46:38.382Z,11.93
2018-11-23T15:49:09.098Z,11.75
2018-11-23T15:51:36.781Z,11.81
2018-11-23T15:54:05.883Z,11.95
2018-11-23T15:56:35.034Z,11.88
2018-11-23T15:59:05.336Z,11.79
2018-11-23T16:01:39.159Z,11.62
2018-11-23T16:04:11.106Z,11.61
2018-11-23T16:06:37.654Z,11.55
2018-11-23T16:11:51.472Z,11.65
2018-11-23T16:14:17.934Z,11.51
2018-11-23T16:16:46.533Z,11.43
2018-11-23T16:19:13.181Z,11.45
2018-11-23T16:21:43.708Z,11.47
2018-11-23T16:24:13.206Z,11.47
2018-11-23T16:26:53.110Z,11.21
2018-11-23T16:29:21.680Z,11.15
2018-11-23T16:31:52.416Z,11.49
2018-11-23T16:34:19.249Z,11.40
2018-11-23T16:36:50.979Z,11.24
2018-11-23T16:39:18.396Z,11.28
2018-11-23T16:41:45.575Z,11.86
2018-11-23T16:44:17.980Z,11.75
2018-11-23T16:46:48.581Z,11.37
2018-11-23T16:49:16.324Z,10.96
2018-11-23T16:51:43.365Z,10.95
2018-11-23T16:54:11.207Z,11.12
2018-11-23T16:56:41.772Z,11.38
2018-11-23T16:59:13.454Z,11.02
2018-11-23T17:01:40.195Z,10.83
2018-11-23T17:04:08.226Z,10.92
2018-11-23T17:06:39.582Z,10.97
2018-11-23T17:09:08.739Z,11.18
2018-11-23T17:11:36.901Z,11.38
2018-11-23T17:14:03.913Z,11.43
2018-11-23T17:16:34.664Z,11.28
2018-11-23T17:20:04.142Z,11.03
2018-11-23T17:22:32.227Z,11.03
2018-11-23T17:24:58.929Z,11.28
2018-11-23T17:27:26.749Z,11.25
2018-11-23T17:29:54.205Z,11.31
2018-11-23T17:35:08.173Z,11.39
2018-11-23T17:40:22.891Z,11.29
2018-11-23T17:42:50.101Z,11.09
2018-11-23T17:45:17.230Z,10.91
2018-11-23T17:47:46.961Z,10.96
2018-11-23T17:53:03.642Z,10.73
2018-11-23T17:55:33.899Z,10.89
2018-11-23T17:58:03.026Z,11.17
2018-11-23T18:00:38.850Z,11.21
2018-11-23T18:03:00.533Z,11.09
2018-11-23T18:05:29.759Z,11.08
2018-11-23T18:07:57.529Z,11.14
2018-11-23T18:20:45.180Z,11.35
2018-11-23T18:23:14.009Z,11.38
2018-11-23T18:25:43.108Z,11.25
2018-11-23T18:28:12.044Z,11.29
2018-11-23T18:30:39.722Z,11.35
2018-11-23T18:33:06.214Z,11.15
2018-11-23T18:35:33.090Z,11.37
2018-11-23T18:38:01.153Z,11.32
2018-11-23T18:40:36.955Z,11.24
2018-11-23T18:43:00.756Z,11.35
2018-11-23T18:45:27.410Z,11.33
2018-11-23T18:47:54.353Z,11.15
2018-11-23T18:50:20.759Z,11.16
2018-11-23T18:52:47.317Z,11.24
2018-11-23T18:55:18.970Z,10.93
2018-11-23T18:57:45.410Z,10.96
2018-11-23T19:03:02.710Z,11.33
2018-11-23T19:08:16.241Z,11.05
2018-11-23T19:10:42.942Z,10.86
2018-11-23T19:13:10.658Z,10.68
2018-11-23T19:15:37.616Z,10.67
2018-11-23T19:18:04.500Z,10.48
2018-11-23T19:20:30.950Z,10.14
2018-11-23T19:22:58.854Z,10.06
2018-11-23T19:25:27.684Z,9.97
2018-11-23T19:30:46.208Z,10.05
2018-11-23T19:33:28.688Z,10.02
2018-11-23T19:35:58.033Z,10.34
2018-11-23T19:38:26.149Z,10.69
2018-11-23T19:40:56.062Z,10.59
2018-11-23T19:46:11.480Z,10.89
2018-11-23T19:48:38.891Z,11.17
2018-11-23T19:51:07.007Z,11.28
2018-11-23T19:53:34.212Z,11.17
2018-11-23T19:56:04.861Z,11.13
2018-11-23T19:58:32.911Z,11.12
2018-11-23T20:01:01.015Z,11.09
2018-11-23T20:03:30.828Z,10.93
2018-11-23T20:06:01.659Z,10.78
2018-11-23T20:08:32.764Z,10.55
2018-11-23T20:11:00.162Z,10.56
2018-11-23T20:13:33.772Z,10.58
2018-11-23T20:16:01.187Z,10.87
2018-11-23T20:18:27.825Z,10.77
2018-11-23T20:21:04.349Z,11.07
2018-11-23T20:23:35.008Z,11.19
2018-11-23T20:26:01.523Z,11.22
2018-11-23T20:28:32.279Z,11.02
2018-11-23T20:33:46.733Z,11.01
2018-11-23T20:39:01.391Z,11.66
2018-11-23T20:41:32.787Z,11.70
2018-11-23T20:44:00.482Z,11.59
2018-11-23T20:46:29.919Z,11.76
2018-11-23T20:48:57.159Z,11.52
2018-11-23T20:51:30.947Z,11.61
2018-11-23T20:54:00.321Z,11.41
2018-11-23T20:59:14.512Z,11.32
2018-11-23T21:01:41.244Z,11.31
2018-11-23T21:04:11.311Z,11.51
2018-11-23T21:06:48.484Z,11.76
2018-11-23T21:09:17.490Z,11.64
2018-11-23T21:11:43.926Z,11.31
2018-11-23T21:14:11.581Z,11.47
2018-11-23T21:19:26.491Z,11.37
2018-11-23T21:21:59.313Z,11.64
2018-11-23T21:24:26.293Z,11.69
2018-11-23T21:26:53.033Z,11.61
2018-11-23T21:29:20.569Z,11.53
2018-11-23T21:31:48.252Z,11.37
2018-11-23T21:34:16.458Z,11.29
2018-11-23T21:36:46.832Z,11.24
2018-11-23T21:39:14.933Z,11.30
2018-11-23T21:41:43.676Z,11.38
2018-11-23T21:44:14.965Z,11.35
2018-11-23T21:46:41.693Z,11.40
2018-11-23T21:49:09.909Z,11.54
2018-11-23T21:51:37.592Z,11.37
2018-11-23T21:54:04.900Z,11.07
2018-11-23T21:56:32.607Z,11.14
2018-11-23T22:01:46.605Z,11.32
2018-11-23T22:04:15.562Z,11.31
2018-11-23T22:06:41.977Z,11.44
2018-11-23T22:09:15.639Z,11.58
2018-11-23T22:11:52.201Z,11.05
2018-11-23T22:14:14.055Z,11.19
2018-11-23T22:16:41.943Z,11.18
2018-11-23T22:19:12.385Z,11.44
2018-11-23T22:21:39.124Z,11.28
2018-11-23T22:24:06.880Z,11.53
2018-11-23T22:26:42.627Z,11.48
2018-11-23T22:29:09.463Z,11.23
2018-11-23T22:31:40.604Z,11.14
2018-11-23T22:34:10.247Z,10.83
2018-11-23T22:36:39.816Z,10.70
2018-11-23T22:39:07.941Z,11.23
2018-11-23T22:41:37.481Z,11.48
2018-11-23T22:44:04.651Z,11.40
2018-11-23T22:46:35.517Z,11.27
2018-11-23T22:49:02.963Z,11.06
2018-11-23T22:51:31.109Z,11.31
2018-11-23T22:54:00.336Z,11.69
2018-11-23T22:56:29.134Z,11.48
2018-11-23T22:58:58.082Z,11.31
2018-11-23T23:01:25.763Z,11.38
2018-11-23T23:03:55.995Z,11.28
2018-11-23T23:06:27.021Z,11.23
2018-11-23T23:08:55.646Z,11.10
2018-11-23T23:11:22.335Z,11.21
2018-11-23T23:13:56.765Z,11.31
2018-11-23T23:16:25.731Z,11.33
2018-11-23T23:18:52.912Z,11.29
2018-11-23T23:21:21.781Z,11.68
2018-11-23T23:23:48.209Z,11.39
2018-11-23T23:26:18.660Z,11.20
2018-11-23T23:28:46.766Z,11.65
2018-11-23T23:31:17.336Z,11.38
2018-11-23T23:33:48.372Z,11.20
2018-11-23T23:36:14.818Z,11.26
2018-11-23T23:38:41.484Z,11.27
2018-11-23T23:41:08.198Z,10.94
2018-11-23T23:43:34.907Z,10.98
2018-11-23T23:46:01.612Z,10.85
2018-11-23T23:48:29.099Z,10.72
2018-11-23T23:50:57.177Z,10.73
2018-11-23T23:53:25.839Z,10.71
2018-11-23T23:55:54.438Z,11.00
2018-11-23T23:58:21.167Z,11.04
